Data for 07/30/2013

Time Sea-Level Adjusted Pressure Absolute Pressure Temperature Relative Humidity Dew Point Precipitation   
(mb) (inHg) (mb) (inHg) (C) (F) (%) (C) (F) (mm) (in)
00:05 1021 30.15 850 25.1 16.6 61.9 63 9.6 49.3 0 0
00:10 1021 30.15 850 25.1 16.5 61.6 63 9.5 49.1 0 0
00:15 1021 30.15 851 25.13 16.4 61.5 63 9.4 48.9 0 0
00:20 1021 30.15 851 25.13 16.4 61.6 63 9.5 49.1 0 0
00:25 1021 30.15 851 25.13 16.3 61.3 63 9.4 48.9 0 0
00:30 1022 30.18 851 25.13 16.3 61.3 63 9.3 48.7 0 0
00:35 1022 30.18 851 25.13 16.2 61.1 63 9.3 48.7 0 0
00:40 1022 30.18 851 25.13 16.2 61.1 64 9.4 48.9 0 0
00:45 1022 30.18 851 25.13 16.1 61 63 9.2 48.5 0 0
00:50 1022 30.18 851 25.13 16.1 61 63 9.2 48.6 0 0
00:55 1022 30.18 851 25.13 16 60.9 64 9.2 48.6 0 0
01:00 1022 30.18 851 25.13 15.9 60.6 64 9.2 48.5 0 0
01:05 1022 30.18 851 25.13 16 60.7 64 9.2 48.5 0 0
01:10 1022 30.18 851 25.13 15.9 60.6 64 9.2 48.5 0 0
01:15 1022 30.18 851 25.13 15.8 60.5 64 9 48.2 0 0
01:20 1022 30.18 851 25.13 15.8 60.4 64 9.1 48.4 0 0
01:25 1022 30.18 851 25.13 15.7 60.2 64 9 48.3 0 0
01:30 1022 30.18 851 25.13 15.6 60.1 65 9.1 48.4 0 0
01:35 1022 30.18 851 25.13 15.4 59.7 66 9.1 48.4 0 0
01:40 1022 30.18 851 25.13 15.3 59.6 66 9 48.2 0 0
01:45 1022 30.18 851 25.13 15.3 59.5 66 9 48.2 0 0
01:50 1022 30.18 851 25.13 15.3 59.5 65 8.8 47.9 0 0
01:55 1022 30.18 851 25.13 15.3 59.5 66 9 48.1 0 0
02:00 1022 30.18 851 25.13 15.3 59.5 65 8.9 48 0 0
02:05 1022 30.18 851 25.13 15.3 59.5 65 8.8 47.9 0 0
02:10 1022 30.18 851 25.13 15.3 59.5 65 8.9 48 0 0
02:15 1022 30.18 851 25.13 15.1 59.2 66 8.9 48.1 0 0
02:20 1022 30.18 851 25.13 15 59 67 9 48.2 0 0
02:25 1022 30.18 851 25.13 14.8 58.6 68 9 48.2 0 0
02:30 1022 30.18 852 25.16 14.6 58.3 67 8.7 47.6 0 0
02:35 1022 30.18 852 25.16 14.8 58.6 67 8.8 47.8 0 0
02:40 1022 30.18 851 25.13 14.5 58.1 70 9.1 48.3 0 0
02:45 1022 30.18 851 25.13 13.7 56.7 74 9.3 48.7 0 0
02:50 1022 30.18 851 25.13 13.1 55.6 76 9.1 48.3 0 0
02:55 1022 30.18 851 25.13 12.9 55.1 78 9.1 48.4 0 0
03:00 1022 30.18 851 25.13 12.6 54.7 78 9 48.1 0 0
03:05 1022 30.18 851 25.13 12.4 54.2 80 9 48.1 0 0
03:10 1022 30.18 852 25.16 12.1 53.9 80 8.8 47.9 0 0
03:15 1022 30.18 852 25.16 12.3 54.2 79 8.8 47.8 0 0
03:20 1023 30.21 852 25.16 12.4 54.3 79 8.9 48 0 0
03:25 1023 30.21 852 25.16 11.9 53.5 81 8.8 47.9 0 0
03:30 1023 30.21 852 25.16 11.5 52.6 81 8.3 46.9 0 0
03:35 1023 30.21 852 25.16 10.8 51.4 82 7.9 46.2 0 0
03:40 1023 30.21 852 25.16 10.3 50.5 82 7.4 45.4 0 0
03:45 1023 30.21 852 25.16 10 50.1 83 7.4 45.2 0 0
03:50 1023 30.21 852 25.16 9.7 49.5 85 7.3 45.2 0 0
03:55 1023 30.21 852 25.16 9.5 49 86 7.3 45.1 0 0
04:00 1023 30.21 852 25.16 9.5 49.2 85 7.2 44.9 0 0
04:05 1023 30.21 852 25.16 9.5 49 86 7.2 45 0 0
04:10 1023 30.21 852 25.16 9.3 48.7 87 7.3 45.1 0 0
04:15 1023 30.21 852 25.16 9.1 48.4 87 7.1 44.9 0 0
04:20 1023 30.21 852 25.16 9.3 48.7 86 7.1 44.7 0 0
04:25 1023 30.21 852 25.16 9.2 48.6 86 7 44.5 0 0
04:30 1023 30.21 852 25.16 9.1 48.4 85 6.8 44.2 0 0
04:35 1023 30.21 852 25.16 9.1 48.4 85 6.7 44.1 0 0
04:40 1023 30.21 852 25.16 8.9 48.1 86 6.7 44.1 0 0
04:45 1023 30.21 852 25.16 8.7 47.6 86 6.5 43.7 0 0
04:50 1023 30.21 852 25.16 8.6 47.5 86 6.4 43.5 0 0
04:55 1023 30.21 852 25.16 8.3 46.9 87 6.3 43.4 0 0
05:00 1023 30.21 853 25.19 8.3 46.9 87 6.3 43.3 0 0
05:05 1024 30.24 853 25.19 8.5 47.3 86 6.4 43.5 0 0
05:10 1024 30.24 853 25.19 8.4 47.1 87 6.4 43.6 0 0
05:15 1024 30.24 853 25.19 8.4 47.2 87 6.4 43.5 0 0
05:20 1024 30.24 853 25.19 8.3 47 86 6.2 43.2 0 0
05:25 1024 30.24 853 25.19 8.4 47 85 6.1 42.9 0 0
05:30 1024 30.24 853 25.19 8.7 47.6 83 6 42.8 0 0
05:35 1024 30.24 853 25.19 9 48.2 84 6.4 43.6 0 0
05:40 1024 30.24 853 25.19 8.8 47.8 84 6.3 43.3 0 0
05:45 1024 30.24 853 25.19 9.2 48.5 81 6.1 43 0 0
05:50 1024 30.24 853 25.19 9.4 49 82 6.5 43.7 0 0
05:55 1024 30.24 853 25.19 9.2 48.6 82 6.3 43.3 0 0
06:00 1024 30.24 853 25.19 8.8 47.9 82 6 42.8 0 0
06:05 1024 30.24 853 25.19 8.9 48.1 81 5.8 42.5 0 0
06:10 1024 30.24 853 25.19 9 48.1 82 6 42.8 0 0
06:15 1024 30.24 853 25.19 8.9 48.1 82 6 42.8 0 0
06:20 1024 30.24 853 25.19 9 48.2 81 6 42.8 0 0
06:25 1024 30.24 854 25.22 9.1 48.3 81 6 42.8 0 0
06:30 1024 30.24 854 25.22 9.1 48.4 81 6.1 42.9 0 0
06:35 1024 30.24 854 25.22 9.3 48.8 79 5.8 42.5 0 0
06:40 1024 30.24 854 25.22 10 50 77 6.2 43.1 0 0
06:45 1024 30.24 854 25.22 10.6 51 76 6.5 43.7 0 0
06:50 1025 30.27 854 25.22 10.9 51.6 76 6.8 44.3 0 0
06:55 1025 30.27 854 25.22 11.2 52.1 74 6.7 44.1 0 0
07:00 1025 30.27 854 25.22 11.2 52.1 76 7.1 44.8 0 0
07:05 1025 30.27 854 25.22 11 51.8 75 6.8 44.3 0 0
07:10 1025 30.27 854 25.22 10.8 51.4 82 7.9 46.2 0 0
07:15 1025 30.27 854 25.22 10.5 50.8 80 7.2 45 0 0
07:20 1025 30.27 854 25.22 10.7 51.2 79 7.2 45 0 0
07:25 1025 30.27 854 25.22 10.9 51.6 80 7.6 45.6 0 0
07:30 1025 30.27 854 25.22 11.1 51.9 78 7.4 45.3 0 0
07:35 1025 30.27 854 25.22 11.2 52.1 80 7.8 46 0 0
07:40 1026 30.3 855 25.25 11.4 52.5 79 7.9 46.2 0 0
07:45 1026 30.3 855 25.25 11.7 53 77 7.8 46.1 0 0
07:50 1026 30.3 855 25.25 12 53.7 77 8.2 46.8 0 0
07:55 1026 30.3 855 25.25 12.1 53.8 80 8.7 47.7 0 0
08:00 1026 30.3 855 25.25 12.3 54.1 78 8.5 47.4 0 0
08:05 1026 30.3 855 25.25 13 55.3 75 8.6 47.5 0 0
08:10 1026 30.3 855 25.25 13.8 56.8 73 9 48.2 0 0
08:15 1026 30.3 855 25.25 14 57.3 73 9.2 48.6 0 0
08:20 1026 30.3 855 25.25 14.1 57.3 74 9.6 49.3 0 0
08:25 1026 30.3 855 25.25 14.1 57.4 74 9.5 49.2 0 0
08:30 1026 30.3 855 25.25 14.2 57.5 72 9.3 48.8 0 0
08:35 1026 30.3 855 25.25 14.3 57.8 74 9.8 49.7 0 0
08:40 1026 30.3 855 25.25 14.3 57.8 73 9.5 49.1 0 0
08:45 1026 30.3 855 25.25 14.5 58.1 72 9.5 49.2 0 0
08:50 1026 30.3 855 25.25 14.7 58.5 75 10.3 50.5 0 0
08:55 1026 30.3 855 25.25 15 59 73 10.2 50.3 0 0
09:00 1026 30.3 855 25.25 15.1 59.2 71 10 49.9 0 0
09:05 1026 30.3 855 25.25 15 59 72 9.9 49.9 0 0
09:10 1026 30.3 855 25.25 14.9 58.9 71 9.8 49.6 0 0
09:15 1026 30.3 855 25.25 16 60.7 65 9.5 49.1 0 0
09:20 1026 30.3 855 25.25 16.8 62.2 63 9.8 49.6 0 0
09:25 1026 30.3 855 25.25 16.9 62.4 61 9.5 49.2 0 0
09:30 1026 30.3 855 25.25 16.5 61.7 63 9.5 49.1 0 0
09:35 1025 30.27 855 25.25 16.5 61.6 61 9.1 48.3 0 0
09:40 1025 30.27 855 25.25 16.5 61.8 62 9.2 48.6 0 0
09:45 1025 30.27 855 25.25 16.9 62.4 58 8.8 47.8 0 0
09:50 1025 30.27 855 25.25 17.1 62.9 59 9.1 48.4 0 0
09:55 1025 30.27 855 25.25 17.6 63.6 59 9.7 49.4 0 0
10:00 1025 30.27 854 25.22 17.7 63.8 61 10.2 50.4 0 0
10:05 1025 30.27 854 25.22 17.6 63.7 60 10 50 0 0
10:10 1025 30.27 854 25.22 18 64.3 56 9.2 48.6 0 0
10:15 1025 30.27 854 25.22 17.9 64.2 57 9.4 48.9 0 0
10:20 1025 30.27 854 25.22 17.7 63.8 61 10.2 50.3 0 0
10:25 1025 30.27 854 25.22 18.2 64.8 56 9.4 49 0 0
10:30 1025 30.27 854 25.22 18.7 65.6 55 9.6 49.3 0 0
10:35 1025 30.27 854 25.22 18.2 64.8 56 9.4 48.9 0 0
10:40 1025 30.27 854 25.22 18.2 64.7 58 10 49.9 0 0
10:45 1025 30.27 854 25.22 18 64.4 58 9.6 49.3 0 0
10:50 1025 30.27 854 25.22 18 64.5 54 8.8 47.8 0 0
10:55 1025 30.27 854 25.22 18.1 64.6 55 9.1 48.3 0 0
11:00 1025 30.27 854 25.22 18.4 65.2 55 9.5 49 0 0
11:05 1025 30.27 855 25.25 18.8 65.9 57 10.2 50.4 0 0
11:10 1025 30.27 855 25.25 19.3 66.7 52 9.2 48.6 0 0
11:15 1025 30.27 854 25.22 19.3 66.7 54 9.9 49.8 0 0
11:20 1025 30.27 854 25.22 18.8 65.8 56 10 50 0 0
11:25 1025 30.27 854 25.22 18.3 65 56 9.5 49.2 0 0
11:30 1025 30.27 854 25.22 18.2 64.8 60 10.3 50.6 0 0
11:35 1025 30.27 854 25.22 18.5 65.2 56 9.6 49.2 0 0
11:40 1025 30.27 854 25.22 18.7 65.6 56 9.8 49.6 0 0
11:45 1025 30.27 855 25.25 18.4 65.2 58 10.1 50.2 0 0
11:50 1025 30.27 854 25.22 18.4 65 59 10.4 50.7 0 0
11:55 1025 30.27 854 25.22 18.7 65.7 59 10.7 51.2 0 0
12:00 1025 30.27 854 25.22 18.6 65.4 60 10.7 51.2 0 0
12:05 1025 30.27 855 25.25 18.8 65.8 57 10.3 50.5 0 0
12:10 1025 30.27 855 25.25 18.5 65.3 57 9.8 49.7 0 0
12:15 1025 30.27 854 25.22 18.4 65.2 58 10.1 50.2 0 0
12:20 1025 30.27 854 25.22 18.3 64.9 59 10.2 50.4 0 0
12:25 1025 30.27 854 25.22 18.3 64.9 59 10.1 50.2 0 0
12:30 1025 30.27 855 25.25 18.8 65.8 57 10.1 50.2 0 0
12:35 1025 30.27 855 25.25 19.2 66.5 55 10.1 50.2 0 0
12:40 1025 30.27 855 25.25 19.4 67 55 10.2 50.4 0 0
12:45 1025 30.27 855 25.25 20.2 68.3 49 9.3 48.7 0 0
12:50 1025 30.27 855 25.25 20.7 69.2 45 8.6 47.5 0 0
12:55 1025 30.27 854 25.22 20.6 69 47 8.9 48 0 0
13:00 1025 30.27 854 25.22 20.9 69.6 48 9.7 49.4 0 0
13:05 1025 30.27 854 25.22 21 69.8 46 9.1 48.4 0 0
13:10 1025 30.27 854 25.22 20.9 69.6 47 9.3 48.7 0 0
13:15 1025 30.27 854 25.22 21.1 70 45 8.9 48 0 0
13:20 1025 30.27 854 25.22 21 69.7 47 9.3 48.8 0 0
13:25 1025 30.27 854 25.22 21.2 70.1 44 8.6 47.5 0 0
13:30 1025 30.27 854 25.22 21.8 71.2 42 8.3 47 0 0
13:35 1025 30.27 854 25.22 22 71.6 38 7.3 45.1 0 0
13:40 1025 30.27 854 25.22 22.2 71.9 42 8.7 47.6 0 0
13:45 1025 30.27 854 25.22 22.3 72.1 42 9.1 48.4 0 0
13:50 1025 30.27 854 25.22 22.6 72.6 37 7.3 45.1 0 0
13:55 1025 30.27 854 25.22 23 73.3 34 6.3 43.3 0 0
14:00 1025 30.27 854 25.22 23.1 73.5 33 6 42.8 0 0
14:05 1025 30.27 854 25.22 22.9 73.1 40 8.7 47.7 0 0
14:10 1025 30.27 854 25.22 23.3 73.9 29 4.3 39.8 0 0
14:15 1024 30.24 854 25.22 23.3 73.9 30 5 41 0 0
14:20 1024 30.24 854 25.22 23.6 74.4 30 5 41 0 0
14:25 1024 30.24 853 25.19 23.8 74.8 25 3 37.5 0 0
14:30 1024 30.24 853 25.19 23.4 74 28 4.2 39.5 0 0
14:35 1024 30.24 853 25.19 23.4 74.1 26 3 37.4 0 0
14:40 1024 30.24 853 25.19 24 75.2 29 5.1 41.2 0 0
14:45 1024 30.24 853 25.19 24.5 76.2 24 2.8 37 0 0
14:50 1024 30.24 853 25.19 24 75.1 23 1.5 34.8 0 0
14:55 1024 30.24 853 25.19 23.3 74 24 2.1 35.7 0 0
15:00 1024 30.24 853 25.19 23.8 74.9 25 2.9 37.2 0 0
15:05 1024 30.24 853 25.19 24.3 75.7 26 3.6 38.5 0 0
15:10 1024 30.24 853 25.19 24.7 76.4 26 4.2 39.6 0 0
15:15 1024 30.24 853 25.19 24.6 76.3 24 3.2 37.8 0 0
15:20 1023 30.21 853 25.19 24.5 76.2 23 2.5 36.5 0 0
15:25 1023 30.21 853 25.19 24.6 76.2 26 4.2 39.6 0 0
15:30 1023 30.21 853 25.19 24.7 76.4 24 3.2 37.7 0 0
15:35 1024 30.24 853 25.19 24.8 76.6 22 1.8 35.2 0 0
15:40 1024 30.24 853 25.19 24.7 76.4 23 2.7 36.8 0 0
15:45 1024 30.24 853 25.19 25.3 77.5 23 2.8 37 0 0
15:50 1024 30.24 853 25.19 25.1 77.1 26 4.2 39.6 0 0
15:55 1024 30.24 853 25.19 25.1 77.3 27 4.9 40.8 0 0
16:00 1024 30.24 853 25.19 25.4 77.8 23 3.1 37.5 0 0
16:05 1024 30.24 853 25.19 24.6 76.2 22 1.9 35.4 0 0
16:10 1024 30.24 853 25.19 24.6 76.2 24 3.1 37.6 0 0
16:15 1024 30.24 853 25.19 25.2 77.4 22 2 35.7 0 0
16:20 1024 30.24 853 25.19 25.1 77.2 22 2.2 36 0 0
16:25 1024 30.24 853 25.19 25 76.9 23 2.5 36.5 0 0
16:30 1024 30.24 853 25.19 25.3 77.5 21 1.9 35.5 0 0
16:35 1024 30.24 853 25.19 24.9 76.8 21 1.2 34.2 0 0
16:40 1024 30.24 853 25.19 25 76.9 22 1.7 35.1 0 0
16:45 1024 30.24 853 25.19 25.1 77.1 21 1.7 35.1 0 0
16:50 1024 30.24 853 25.19 25.4 77.7 21 1.5 34.7 0 0
16:55 1024 30.24 853 25.19 25.1 77.2 23 2.8 37 0 0
17:00 1024 30.24 853 25.19 25.2 77.3 24 3.3 38 0 0
17:05 1024 30.24 853 25.19 24.8 76.6 25 3.4 38.1 0 0
17:10 1024 30.24 853 25.19 24.7 76.4 25 3.6 38.6 0 0
17:15 1024 30.24 853 25.19 24 75.2 25 2.8 37 0 0
17:20 1024 30.24 853 25.19 23 73.3 34 6.5 43.7 0 0
17:25 1024 30.24 854 25.22 21.8 71.2 36 6.1 43.1 0 0
17:30 1024 30.24 854 25.22 21.3 70.3 34 5 41.1 0 0
17:35 1024 30.24 854 25.22 21.4 70.5 33 4.7 40.4 0 0
17:40 1024 30.24 854 25.22 21.8 71.2 32 4.5 40.1 0 0
17:45 1024 30.24 854 25.22 22 71.7 32 4.7 40.4 0 0
17:50 1025 30.27 854 25.22 22.4 72.2 33 5.3 41.6 0 0
17:55 1025 30.27 854 25.22 22.9 73.3 32 5.6 42.1 0 0
18:00 1025 30.27 854 25.22 23 73.4 32 5.5 41.8 0 0
18:05 1025 30.27 854 25.22 22.6 72.6 29 4.1 39.3 0 0
18:10 1025 30.27 854 25.22 22.3 72.2 31 4.8 40.6 0 0
18:15 1025 30.27 854 25.22 22.5 72.5 29 4 39.1 0 0
18:20 1025 30.27 854 25.22 22.5 72.5 31 4.8 40.6 0 0
18:25 1025 30.27 854 25.22 22.6 72.7 29 4 39.1 0 0
18:30 1025 30.27 854 25.22 22.3 72.2 30 3.9 39.1 0 0
18:35 1025 30.27 854 25.22 22.1 71.7 30 3.9 39.1 0 0
18:40 1025 30.27 855 25.25 21.6 70.9 31 4.2 39.5 0 0
18:45 1025 30.27 855 25.25 20.9 69.7 34 4.8 40.6 0 0
18:50 1025 30.27 855 25.25 20.7 69.2 33 4.1 39.3 0 0
18:55 1025 30.27 855 25.25 20.4 68.8 34 4 39.2 0 0
19:00 1025 30.27 855 25.25 20.4 68.7 35 4.7 40.5 0 0
19:05 1026 30.3 855 25.25 20.1 68.2 43 7.5 45.4 0 0
19:10 1026 30.3 855 25.25 19.9 67.8 40 6.1 43 0 0
19:15 1025 30.27 855 25.25 20.8 69.4 32 3.8 38.9 0 0
19:20 1025 30.27 855 25.25 20.7 69.2 41 7 44.6 0 0
19:25 1026 30.3 855 25.25 19.3 66.8 43 6.5 43.6 0 0
19:30 1026 30.3 855 25.25 18.6 65.4 54 9.2 48.6 0 0
19:35 1026 30.3 855 25.25 18 64.3 53 8.4 47.1 0 0
19:40 1026 30.3 855 25.25 18.2 64.8 51 8 46.4 0 0
19:45 1026 30.3 855 25.25 18.5 65.3 49 7.9 46.1 0 0
19:50 1026 30.3 855 25.25 19 66.2 52 9.1 48.3 0 0
19:55 1025 30.27 855 25.25 19 66.3 53 9.3 48.8 0 0
20:00 1025 30.27 855 25.25 18.9 66.1 55 9.9 49.8 0 0
20:05 1025 30.27 855 25.25 18.7 65.6 57 10.1 50.1 0 0
20:10 1025 30.27 855 25.25 18.1 64.5 56 9.4 48.8 0 0
20:15 1025 30.27 855 25.25 17.5 63.5 60 9.7 49.5 0 0
20:20 1025 30.27 855 25.25 17.5 63.6 60 9.7 49.5 0 0
20:25 1025 30.27 855 25.25 17.2 63 57 8.8 47.8 0 0
20:30 1025 30.27 855 25.25 17.6 63.7 53 8 46.4 0 0
20:35 1025 30.27 855 25.25 17.8 64 55 8.7 47.7 0 0
20:40 1025 30.27 855 25.25 17.4 63.4 56 8.7 47.7 0 0
20:45 1026 30.3 855 25.25 17.2 62.9 53 7.6 45.7 0 0
20:50 1026 30.3 855 25.25 17.4 63.4 50 7.1 44.9 0 0
20:55 1026 30.3 855 25.25 17.4 63.4 51 7.2 44.9 0 0
21:00 1026 30.3 855 25.25 17 62.6 53 7.3 45.2 0 0
21:05 1026 30.3 855 25.25 16.7 62.1 52 6.9 44.4 0 0
21:10 1026 30.3 855 25.25 16.8 62.3 52 7 44.6 0 0
21:15 1026 30.3 855 25.25 16.8 62.3 53 7.2 45 0 0
21:20 1026 30.3 855 25.25 16.6 62 52 6.9 44.5 0 0
21:25 1026 30.3 855 25.25 16.8 62.2 51 6.7 44.1 0 0
21:30 1026 30.3 855 25.25 17.1 62.7 50 6.6 43.9 0 0
21:35 1026 30.3 855 25.25 17.2 63 50 6.9 44.4 0 0
21:40 1026 30.3 855 25.25 17.1 62.8 51 7.1 44.8 0 0
21:45 1026 30.3 856 25.28 17 62.5 53 7.5 45.5 0 0
21:50 1027 30.33 856 25.28 16.8 62.2 55 7.7 45.9 0 0
21:55 1027 30.33 856 25.28 16.6 61.8 57 8 46.4 0 0
22:00 1027 30.33 856 25.28 16.6 61.8 59 8.6 47.4 0 0
22:05 1027 30.33 856 25.28 16.6 61.9 59 8.6 47.5 0 0
22:10 1027 30.33 856 25.28 16.6 61.9 59 8.6 47.4 0 0
22:15 1027 30.33 856 25.28 16.7 62.1 59 8.7 47.6 0 0
22:20 1027 30.33 856 25.28 16.7 62.1 60 9 48.1 0 0
22:25 1027 30.33 856 25.28 16.7 62 60 8.9 48 0 0
22:30 1027 30.33 856 25.28 16.6 61.8 61 9.1 48.3 0 0
22:35 1027 30.33 856 25.28 16.5 61.6 62 9.3 48.7 0 0
22:40 1027 30.33 856 25.28 16.3 61.3 62 9.1 48.5 0 0
22:45 1027 30.33 856 25.28 16 60.8 64 9.4 48.9 0 0
22:50 1027 30.33 856 25.28 15.7 60.3 66 9.5 49.1 0 0
22:55 1027 30.33 856 25.28 14.8 58.6 68 9 48.3 0 0
23:00 1027 30.33 856 25.28 13.8 56.8 69 8.2 46.7 0 0
23:05 1027 30.33 856 25.28 13.9 57 69 8.4 47.1 0 0
23:10 1027 30.33 856 25.28 14.2 57.6 70 8.8 47.9 0 0
23:15 1027 30.33 856 25.28 14.3 57.7 69 8.8 47.8 0 0
23:20 1027 30.33 856 25.28 14.4 57.8 69 8.8 47.8 0 0
23:25 1027 30.33 856 25.28 14.4 57.8 69 8.8 47.9 0 0
23:30 1027 30.33 856 25.28 14.3 57.8 70 9.1 48.3 0 0
23:35 1027 30.33 856 25.28 14.1 57.3 71 9 48.2 0 0
23:40 1027 30.33 856 25.28 13.8 56.9 73 9.1 48.4 0 0
23:45 1027 30.33 856 25.28 13.5 56.3 74 8.9 48.1 0 0
23:50 1027 30.33 856 25.28 13.4 56.1 73 8.7 47.6 0 0
23:55 1027 30.33 856 25.28 13.2 55.7 72 8.2 46.8 0 0
24:00 1027 30.33 856 25.28 13.1 55.6 70 7.8 46.1 0 0